createdAt,value
2022-10-03T00:00:17.086Z,101919.38
2022-10-03T00:00:43.615Z,101921.25
2022-10-03T00:01:22.422Z,101920.41
2022-10-03T00:02:01.110Z,101921.44
2022-10-03T00:02:41.858Z,101925.03
2022-10-03T00:03:22.808Z,101920.41
2022-10-03T00:03:53.387Z,101922.22
2022-10-03T00:04:41.711Z,101921.41
2022-10-03T00:05:17.619Z,101928.44
2022-10-03T00:05:53.440Z,101929.31
2022-10-03T00:06:25.847Z,101935.50
2022-10-03T00:07:00.452Z,101931.97
2022-10-03T00:07:50.735Z,101937.31
2022-10-03T00:08:22.200Z,101932.03
2022-10-03T00:09:01.456Z,101933.84
2022-10-03T00:09:41.842Z,101932.16
2022-10-03T00:10:19.015Z,101933.91
2022-10-03T00:10:56.620Z,101932.03
2022-10-03T00:11:32.342Z,101925.00
2022-10-03T00:12:08.545Z,101929.50
2022-10-03T00:12:56.657Z,101934.03
2022-10-03T00:13:26.567Z,101934.84
2022-10-03T00:13:57.428Z,101937.50
2022-10-03T00:14:30.385Z,101934.81
2022-10-03T00:15:03.605Z,101939.41
2022-10-03T00:15:29.675Z,101933.16
2022-10-03T00:16:03.117Z,101934.81
2022-10-03T00:16:34.440Z,101940.06
2022-10-03T00:17:09.322Z,101940.03
2022-10-03T00:17:43.195Z,101937.34
2022-10-03T00:18:19.049Z,101938.31
2022-10-03T00:18:52.136Z,101941.84
2022-10-03T00:19:24.473Z,101945.34
2022-10-03T00:19:58.364Z,101942.69
2022-10-03T00:20:40.316Z,101949.97
2022-10-03T00:21:21.743Z,101940.31
2022-10-03T00:21:56.600Z,101947.16
2022-10-03T00:22:32.671Z,101948.19
2022-10-03T00:23:02.303Z,101954.56
2022-10-03T00:23:30.562Z,101949.25
2022-10-03T00:24:07.124Z,101950.28
2022-10-03T00:24:45.979Z,101944.97
2022-10-03T00:25:25.287Z,101949.38
2022-10-03T00:25:55.424Z,101946.69
2022-10-03T00:26:29.097Z,101951.19
2022-10-03T00:26:57.413Z,101949.38
2022-10-03T00:27:31.581Z,101946.63
2022-10-03T00:28:07.874Z,101955.63
2022-10-03T00:28:50.003Z,101955.66
2022-10-03T00:29:43.567Z,101952.97
2022-10-03T00:30:17.407Z,101956.59
2022-10-03T00:30:55.293Z,101955.94
2022-10-03T00:31:23.193Z,101955.94
2022-10-03T00:31:56.397Z,101959.47
2022-10-03T00:32:35.765Z,101960.28
2022-10-03T00:33:10.332Z,101963.88
2022-10-03T00:33:43.365Z,101955.84
2022-10-03T00:34:22.359Z,101962.16
2022-10-03T00:35:01.379Z,101962.03
2022-10-03T00:35:40.694Z,101955.03
2022-10-03T00:36:09.072Z,101958.53
2022-10-03T00:36:42.434Z,101939.31
2022-10-03T00:37:21.508Z,101961.19
2022-10-03T00:37:57.120Z,101964.88
2022-10-03T00:38:38.189Z,101955.19
2022-10-03T00:39:25.354Z,101959.53
2022-10-03T00:40:02.813Z,101961.44
2022-10-03T00:40:58.257Z,101953.56
2022-10-03T00:41:35.754Z,101955.19
2022-10-03T00:42:42.987Z,101957.84
2022-10-03T00:43:32.325Z,101949.91
2022-10-03T00:44:38.027Z,101948.03
2022-10-03T00:46:34.690Z,101958.03
2022-10-03T00:47:19.127Z,101962.50
2022-10-03T00:47:58.684Z,101965.13
2022-10-03T00:48:56.269Z,101952.78
2022-10-03T00:49:56.909Z,101955.56
2022-10-03T00:50:52.176Z,101958.34
2022-10-03T00:51:27.943Z,101953.16
2022-10-03T00:52:06.031Z,101962.13
2022-10-03T00:52:54.868Z,101962.94
2022-10-03T00:53:34.868Z,101958.63
2022-10-03T00:54:16.069Z,101961.38
2022-10-03T00:54:56.913Z,101951.88
2022-10-03T00:55:27.166Z,101965.78
2022-10-03T00:56:00.950Z,101966.53
2022-10-03T00:56:41.613Z,101955.09
2022-10-03T00:57:17.035Z,101968.25
2022-10-03T00:57:57.054Z,101964.59
2022-10-03T00:58:44.360Z,101970.88
2022-10-03T00:59:23.097Z,101972.63
2022-10-03T01:00:02.542Z,101968.25
2022-10-03T01:00:28.630Z,101975.41
2022-10-03T01:00:51.840Z,101974.53
2022-10-03T01:01:35.420Z,101971.06
2022-10-03T01:01:58.167Z,101970.31
2022-10-03T01:02:41.618Z,101975.59
2022-10-03T01:03:28.388Z,101973.75
2022-10-03T01:04:03.673Z,101971.94
2022-10-03T01:04:43.741Z,101971.06
2022-10-03T01:05:20.270Z,101972.06
2022-10-03T01:05:53.632Z,101965.72
2022-10-03T01:06:28.470Z,101966.59
2022-10-03T01:07:06.699Z,101970.16
2022-10-03T01:07:49.084Z,101972.72
2022-10-03T01:08:48.654Z,101972.72
2022-10-03T01:09:21.017Z,101972.72
2022-10-03T01:10:00.963Z,101974.41
2022-10-03T01:10:32.678Z,101971.81
2022-10-03T01:11:07.209Z,101973.59
2022-10-03T01:11:42.776Z,101962.19
2022-10-03T01:12:16.572Z,101967.47
2022-10-03T01:12:58.036Z,101975.53
2022-10-03T01:13:34.053Z,101970.19
2022-10-03T01:14:09.885Z,101976.47
2022-10-03T01:14:57.230Z,101977.41
2022-10-03T01:15:29.252Z,101981.88
2022-10-03T01:15:59.924Z,101976.66
2022-10-03T01:16:37.865Z,101964.34
2022-10-03T01:17:11.941Z,101981.03
2022-10-03T01:17:48.381Z,101984.59
2022-10-03T01:18:24.966Z,101973.81
2022-10-03T01:19:02.046Z,101972.88
2022-10-03T01:19:43.213Z,101973.81
2022-10-03T01:20:27.053Z,101978.34
2022-10-03T01:21:02.061Z,101973.06
2022-10-03T01:21:35.756Z,101981.03
2022-10-03T01:22:18.701Z,101974.75
2022-10-03T01:23:15.900Z,101974.75
2022-10-03T01:23:56.220Z,101976.47
2022-10-03T01:24:46.553Z,101976.44
2022-10-03T01:25:17.142Z,101973.72
2022-10-03T01:25:45.407Z,101979.00
2022-10-03T01:26:41.944Z,101975.53
2022-10-03T01:27:07.432Z,101980.00
2022-10-03T01:27:59.626Z,101978.34
2022-10-03T01:28:56.928Z,101974.00
2022-10-03T01:29:41.564Z,101982.75
2022-10-03T01:30:24.601Z,101972.97
2022-10-03T01:30:50.593Z,101977.50
2022-10-03T01:31:17.842Z,101971.34
2022-10-03T01:31:48.270Z,101978.53
2022-10-03T01:32:16.729Z,101972.31
2022-10-03T01:32:43.749Z,101973.28
2022-10-03T01:33:14.924Z,101971.38
2022-10-03T01:33:43.420Z,101971.50
2022-10-03T01:34:11.652Z,101968.78
2022-10-03T01:34:40.250Z,101972.28
2022-10-03T01:35:12.793Z,101966.97
2022-10-03T01:35:42.161Z,101947.69
2022-10-03T01:36:12.622Z,101970.63
2022-10-03T01:36:42.444Z,101963.63
2022-10-03T01:37:11.018Z,101969.84
2022-10-03T01:37:44.081Z,101975.16
2022-10-03T01:38:19.597Z,101965.41
2022-10-03T01:38:46.324Z,101967.09
2022-10-03T01:39:17.201Z,101972.44
2022-10-03T01:39:47.898Z,101969.72
2022-10-03T01:40:19.816Z,101974.16
2022-10-03T01:40:50.743Z,101968.78
2022-10-03T01:41:33.614Z,101974.00
2022-10-03T01:42:00.925Z,101974.91
2022-10-03T01:42:38.081Z,101966.03
2022-10-03T01:43:11.745Z,101969.56
2022-10-03T01:43:42.441Z,101974.13
2022-10-03T01:44:14.195Z,101970.56
2022-10-03T01:44:48.596Z,101976.75
2022-10-03T01:45:23.483Z,101971.50
2022-10-03T01:45:52.922Z,101968.03
2022-10-03T01:46:19.968Z,101980.41
2022-10-03T01:46:48.142Z,101979.50
2022-10-03T01:47:21.611Z,101973.25
2022-10-03T01:47:51.333Z,101978.47
2022-10-03T01:48:22.928Z,101968.69
2022-10-03T01:48:55.464Z,101968.78
2022-10-03T01:49:25.203Z,101968.69
2022-10-03T01:49:55.876Z,101971.31
2022-10-03T01:50:28.124Z,101968.72
2022-10-03T01:50:59.624Z,101973.13
2022-10-03T01:51:27.481Z,101973.16
2022-10-03T01:52:00.044Z,101967.78
2022-10-03T01:52:33.293Z,101970.38
2022-10-03T01:53:02.646Z,101968.69
2022-10-03T01:53:33.890Z,101972.09
2022-10-03T01:54:17.058Z,101972.16
2022-10-03T01:54:50.317Z,101983.75
2022-10-03T01:55:22.103Z,101971.56
2022-10-03T01:55:54.953Z,101974.34
2022-10-03T01:56:26.137Z,101969.09
2022-10-03T01:56:58.831Z,101977.16
2022-10-03T01:57:30.597Z,101975.41
2022-10-03T01:58:00.990Z,101970.13
2022-10-03T01:58:29.068Z,101976.34
2022-10-03T01:59:01.147Z,101985.38
2022-10-03T01:59:33.076Z,101980.00
2022-10-03T02:00:01.512Z,101983.47
2022-10-03T02:00:43.848Z,101988.81
2022-10-03T02:01:12.461Z,101978.22
2022-10-03T02:01:44.427Z,101986.25
2022-10-03T02:02:17.267Z,101989.78
2022-10-03T02:02:45.356Z,101974.84
2022-10-03T02:03:15.296Z,101985.38
2022-10-03T02:03:45.175Z,101980.91
2022-10-03T02:04:16.382Z,101986.31
2022-10-03T02:04:47.981Z,101981.94
2022-10-03T02:05:15.517Z,101991.50
2022-10-03T02:05:49.853Z,101988.00
2022-10-03T02:06:21.344Z,101988.91
2022-10-03T02:06:53.680Z,101979.91
2022-10-03T02:07:25.389Z,101993.28
2022-10-03T02:07:55.533Z,101987.03
2022-10-03T02:08:30.891Z,101994.94
2022-10-03T02:09:03.289Z,101990.47
2022-10-03T02:09:32.509Z,101989.50
2022-10-03T02:10:07.201Z,101995.88
2022-10-03T02:10:40.439Z,101991.50
2022-10-03T02:11:04.496Z,102003.94
2022-10-03T02:11:33.688Z,101995.03
2022-10-03T02:12:07.280Z,101999.50
2022-10-03T02:12:35.088Z,101996.03
2022-10-03T02:13:07.026Z,101993.41
2022-10-03T02:13:38.411Z,101994.19
2022-10-03T02:14:17.000Z,101995.97
2022-10-03T02:14:51.914Z,102001.38
2022-10-03T02:15:19.034Z,101999.53
2022-10-03T02:15:54.415Z,102007.66
2022-10-03T02:16:25.486Z,102009.44
2022-10-03T02:16:58.155Z,102012.00
2022-10-03T02:17:30.656Z,101999.66
2022-10-03T02:17:57.809Z,102009.38
2022-10-03T02:18:28.578Z,102002.34
2022-10-03T02:18:56.215Z,102005.13
2022-10-03T02:19:23.040Z,102000.69
2022-10-03T02:19:55.026Z,102009.66
2022-10-03T02:20:25.601Z,102003.34
2022-10-03T02:20:54.558Z,102011.38
2022-10-03T02:21:20.861Z,102013.28
2022-10-03T02:21:48.496Z,102006.03
2022-10-03T02:22:16.458Z,102012.25
2022-10-03T02:22:43.664Z,102013.91
2022-10-03T02:23:22.821Z,102012.13
2022-10-03T02:23:46.707Z,102002.47
2022-10-03T02:24:25.678Z,102012.97
2022-10-03T02:24:57.320Z,102009.38
2022-10-03T02:25:27.248Z,102010.19
2022-10-03T02:26:15.188Z,102010.19
2022-10-03T02:27:07.381Z,102015.56
2022-10-03T02:28:05.566Z,102009.41
2022-10-03T02:29:06.941Z,102008.69
2022-10-03T02:30:04.354Z,102004.25
2022-10-03T02:30:35.225Z,102006.00
2022-10-03T02:31:14.911Z,102010.47
2022-10-03T02:32:13.632Z,101996.31
2022-10-03T02:33:09.624Z,102005.94
2022-10-03T02:33:54.075Z,102007.00
2022-10-03T02:34:48.869Z,102006.16
2022-10-03T02:35:28.349Z,101999.13
2022-10-03T02:35:56.955Z,102013.41
2022-10-03T02:36:54.364Z,102009.94
2022-10-03T02:37:47.087Z,102002.78
2022-10-03T02:38:45.923Z,102011.00
2022-10-03T02:39:25.485Z,102007.41
2022-10-03T02:40:17.849Z,102011.81
2022-10-03T02:41:15.058Z,102003.72
2022-10-03T02:42:11.812Z,102008.25
2022-10-03T02:43:09.337Z,101997.56
2022-10-03T02:44:11.641Z,102004.66
2022-10-03T02:45:08.809Z,102009.13
2022-10-03T02:46:10.995Z,102001.97
2022-10-03T02:47:13.138Z,102011.69
2022-10-03T02:48:32.409Z,101996.81
2022-10-03T02:49:24.330Z,102007.50
2022-10-03T02:50:27.415Z,102006.69
2022-10-03T02:51:30.682Z,102003.84
2022-10-03T02:52:15.665Z,102000.44
2022-10-03T02:53:41.909Z,101999.72
2022-10-03T02:54:46.302Z,102008.47
2022-10-03T02:55:49.196Z,101997.97
2022-10-03T02:56:51.287Z,102018.22
2022-10-03T02:57:41.798Z,102010.09
2022-10-03T02:58:36.992Z,102013.75
2022-10-03T02:59:28.605Z,102016.31
2022-10-03T03:00:13.584Z,102010.97
2022-10-03T03:01:00.055Z,102006.63
2022-10-03T03:01:59.610Z,102004.84
2022-10-03T03:02:46.304Z,102011.13
2022-10-03T03:03:40.043Z,102011.09
2022-10-03T03:04:50.662Z,102016.41
2022-10-03T03:05:30.536Z,102021.78
2022-10-03T03:06:30.988Z,102012.09
2022-10-03T03:07:08.312Z,102013.81
2022-10-03T03:07:39.150Z,101998.03
2022-10-03T03:08:21.140Z,102014.69
2022-10-03T03:09:18.596Z,102015.50
2022-10-03T03:10:13.472Z,102011.09
2022-10-03T03:11:06.685Z,102018.13
2022-10-03T03:12:10.682Z,102014.50
2022-10-03T03:13:05.440Z,102019.84
2022-10-03T03:13:59.024Z,102020.75
2022-10-03T03:14:47.044Z,102025.38
2022-10-03T03:15:51.270Z,102017.56
2022-10-03T03:16:40.854Z,102023.81
2022-10-03T03:17:19.652Z,102023.81
2022-10-03T03:17:52.546Z,102015.06
2022-10-03T03:18:24.055Z,102023.81
2022-10-03T03:18:55.694Z,102031.84
2022-10-03T03:19:37.666Z,102030.13
2022-10-03T03:20:21.430Z,102026.56
2022-10-03T03:21:00.001Z,102028.47
2022-10-03T03:21:30.426Z,102024.03
2022-10-03T03:22:01.875Z,102026.63
2022-10-03T03:22:35.239Z,102027.47
2022-10-03T03:23:24.608Z,102033.72
2022-10-03T03:24:08.696Z,102032.94
2022-10-03T03:24:45.465Z,102025.91
2022-10-03T03:25:39.117Z,102025.84
2022-10-03T03:26:28.810Z,102017.94
2022-10-03T03:27:04.137Z,102027.38
2022-10-03T03:27:42.541Z,102023.94
2022-10-03T03:28:18.388Z,102038.13
2022-10-03T03:28:54.868Z,102032.81
2022-10-03T03:29:26.890Z,102039.94
2022-10-03T03:29:55.778Z,102041.56
2022-10-03T03:30:21.696Z,102028.25
2022-10-03T03:30:53.796Z,102029.25
2022-10-03T03:31:22.647Z,102032.63
2022-10-03T03:31:54.512Z,102031.78
2022-10-03T03:32:28.242Z,102049.69
2022-10-03T03:33:04.977Z,102039.81
2022-10-03T03:33:38.824Z,102036.25
2022-10-03T03:34:09.495Z,102038.03
2022-10-03T03:34:42.196Z,102041.47
2022-10-03T03:35:13.645Z,102040.50
2022-10-03T03:35:49.720Z,102038.78
2022-10-03T03:36:19.789Z,102040.59
2022-10-03T03:36:51.799Z,102042.34
2022-10-03T03:37:24.397Z,102044.03
2022-10-03T03:37:54.410Z,102040.50
2022-10-03T03:38:30.948Z,102036.06
2022-10-03T03:39:03.128Z,102035.25
2022-10-03T03:39:46.621Z,102033.59
2022-10-03T03:40:29.453Z,102037.16
2022-10-03T03:41:03.835Z,102040.75
2022-10-03T03:41:45.800Z,102028.34
2022-10-03T03:42:23.706Z,102033.66
2022-10-03T03:43:02.076Z,102037.13
2022-10-03T03:43:37.169Z,102033.59
2022-10-03T03:44:25.361Z,102043.47
2022-10-03T03:45:05.154Z,102035.63
2022-10-03T03:46:02.325Z,102039.06
2022-10-03T03:46:39.772Z,102039.16
2022-10-03T03:47:14.561Z,102045.38
2022-10-03T03:47:57.140Z,102048.06
2022-10-03T03:48:39.572Z,102049.97
2022-10-03T03:49:16.432Z,102042.75
2022-10-03T03:49:59.072Z,102044.53
2022-10-03T03:50:38.032Z,102035.94
2022-10-03T03:51:12.922Z,102043.63
2022-10-03T03:51:43.203Z,102038.41
2022-10-03T03:52:27.472Z,102041.09
2022-10-03T03:53:06.521Z,102049.06
2022-10-03T03:54:12.843Z,102044.81
2022-10-03T03:54:55.758Z,102044.75
2022-10-03T03:55:33.889Z,102047.56
2022-10-03T03:56:15.372Z,102044.91
2022-10-03T03:57:00.010Z,102055.53
2022-10-03T03:57:37.966Z,102043.13
2022-10-03T03:58:13.077Z,102053.78
2022-10-03T03:58:40.128Z,102048.44
2022-10-03T03:59:13.457Z,102050.25
2022-10-03T03:59:50.778Z,102046.63
2022-10-03T04:00:15.935Z,102039.50
2022-10-03T04:00:56.574Z,102045.72
2022-10-03T04:01:43.279Z,102045.72
2022-10-03T04:02:18.385Z,102050.19
2022-10-03T04:02:52.972Z,102050.19
2022-10-03T04:03:31.756Z,102043.97
2022-10-03T04:04:04.544Z,102050.19
2022-10-03T04:04:45.717Z,102047.56
2022-10-03T04:05:19.494Z,102041.41
2022-10-03T04:05:58.802Z,102045.00
2022-10-03T04:06:34.978Z,102041.28
2022-10-03T04:07:09.205Z,102051.00
2022-10-03T04:07:50.842Z,102049.19
2022-10-03T04:08:40.222Z,102051.88
2022-10-03T04:09:21.382Z,102044.75
2022-10-03T04:09:59.669Z,102050.16
2022-10-03T04:10:38.169Z,102047.53
2022-10-03T04:11:14.243Z,102050.19
2022-10-03T04:11:51.697Z,102052.78
2022-10-03T04:12:25.678Z,102057.28
2022-10-03T04:13:05.987Z,102051.13
2022-10-03T04:13:50.649Z,102053.84
2022-10-03T04:14:39.529Z,102058.34
2022-10-03T04:15:13.112Z,102057.44
2022-10-03T04:15:46.636Z,102052.00
2022-10-03T04:16:41.038Z,102057.31
2022-10-03T04:17:40.661Z,102061.75
2022-10-03T04:18:43.453Z,102065.41
2022-10-03T04:19:11.881Z,102060.22
2022-10-03T04:19:46.617Z,102053.97
2022-10-03T04:20:20.408Z,102061.00
2022-10-03T04:21:01.179Z,102066.34
2022-10-03T04:21:57.961Z,102065.47
2022-10-03T04:22:40.442Z,102073.50
2022-10-03T04:23:12.860Z,102062.81
2022-10-03T04:23:52.498Z,102068.94
2022-10-03T04:24:31.689Z,102051.41
2022-10-03T04:25:15.821Z,102065.31
2022-10-03T04:25:51.917Z,102064.47
2022-10-03T04:26:26.617Z,102068.84
2022-10-03T04:27:04.289Z,102068.84
2022-10-03T04:27:45.708Z,102060.84
2022-10-03T04:28:26.564Z,102070.53
2022-10-03T04:29:08.881Z,102066.91
2022-10-03T04:29:47.949Z,102063.31
2022-10-03T04:30:14.596Z,102069.50
2022-10-03T04:30:49.320Z,102066.88
2022-10-03T04:31:31.959Z,102064.22
2022-10-03T04:32:07.764Z,102066.00
2022-10-03T04:32:51.095Z,102064.22
2022-10-03T04:33:23.081Z,102066.09
2022-10-03T04:34:04.833Z,102071.44
2022-10-03T04:34:36.844Z,102065.19
2022-10-03T04:35:17.932Z,102065.25
2022-10-03T04:36:08.356Z,102065.22
2022-10-03T04:36:57.129Z,102065.25
2022-10-03T04:37:25.583Z,102063.53
2022-10-03T04:37:54.409Z,102067.81
2022-10-03T04:38:23.297Z,102064.22
2022-10-03T04:38:55.125Z,102061.66
2022-10-03T04:39:26.336Z,102072.31
2022-10-03T04:39:58.486Z,102065.19
2022-10-03T04:40:31.774Z,102067.97
2022-10-03T04:41:03.009Z,102068.69
2022-10-03T04:41:38.747Z,102069.47
2022-10-03T04:42:14.580Z,102068.56
2022-10-03T04:42:46.310Z,102066.00
2022-10-03T04:43:15.235Z,102061.63
2022-10-03T04:43:44.869Z,102059.84
2022-10-03T04:44:27.775Z,102066.75
2022-10-03T04:45:05.613Z,102075.66
2022-10-03T04:45:40.811Z,102073.09
2022-10-03T04:46:19.692Z,102078.31
2022-10-03T04:46:48.323Z,102072.97
2022-10-03T04:47:21.381Z,102069.34
2022-10-03T04:47:51.354Z,102065.09
2022-10-03T04:48:18.436Z,102077.44
2022-10-03T04:48:47.837Z,102070.34
2022-10-03T04:49:20.120Z,102071.25
2022-10-03T04:49:46.151Z,102074.78
2022-10-03T04:50:32.618Z,102069.41
2022-10-03T04:51:04.368Z,102065.03
2022-10-03T04:51:40.133Z,102066.75
2022-10-03T04:52:06.887Z,102072.97
2022-10-03T04:52:39.228Z,102071.22
2022-10-03T04:53:19.221Z,102065.91
2022-10-03T04:53:49.522Z,102060.56
2022-10-03T04:54:23.200Z,102063.22
2022-10-03T04:54:54.271Z,102066.75
2022-10-03T04:55:28.765Z,102054.22
2022-10-03T04:55:57.337Z,102057.00
2022-10-03T04:56:44.592Z,102050.75
2022-10-03T04:57:19.121Z,102057.72
2022-10-03T04:57:52.455Z,102064.88
2022-10-03T04:58:25.393Z,102058.66
2022-10-03T04:58:55.888Z,102057.06
2022-10-03T04:59:31.769Z,102068.53
2022-10-03T05:00:03.426Z,102068.53
2022-10-03T05:00:31.996Z,102056.94
2022-10-03T05:01:05.806Z,102059.66
2022-10-03T05:01:34.217Z,102058.66
2022-10-03T05:02:03.922Z,102059.59
2022-10-03T05:02:45.488Z,102057.84
2022-10-03T05:03:22.273Z,102065.91
2022-10-03T05:03:54.292Z,102054.41
2022-10-03T05:04:26.079Z,102057.97
2022-10-03T05:05:00.680Z,102062.41
2022-10-03T05:05:41.757Z,102054.44
2022-10-03T05:06:18.444Z,102054.44
2022-10-03T05:06:48.611Z,102056.19
2022-10-03T05:07:17.397Z,102057.97
2022-10-03T05:07:51.073Z,102056.22
2022-10-03T05:08:22.938Z,102060.56
2022-10-03T05:08:58.712Z,102052.53
2022-10-03T05:09:27.268Z,102063.13
2022-10-03T05:09:53.020Z,102061.22
2022-10-03T05:10:29.407Z,102060.28
2022-10-03T05:11:03.807Z,102055.81
2022-10-03T05:11:39.405Z,102051.44
2022-10-03T05:12:12.718Z,102052.28
2022-10-03T05:12:42.665Z,102063.69
2022-10-03T05:13:12.383Z,102053.94
2022-10-03T05:13:45.720Z,102063.81
2022-10-03T05:14:13.732Z,102058.38
2022-10-03T05:14:50.952Z,102058.31
2022-10-03T05:15:22.200Z,102065.44
2022-10-03T05:15:56.475Z,102066.28
2022-10-03T05:16:29.040Z,102068.97
2022-10-03T05:16:57.323Z,102058.31
2022-10-03T05:17:26.515Z,102060.06
2022-10-03T05:17:55.937Z,102062.75
2022-10-03T05:18:29.787Z,102072.56
2022-10-03T05:18:57.820Z,102055.84
2022-10-03T05:19:39.004Z,102070.88
2022-10-03T05:20:21.895Z,102072.75
2022-10-03T05:20:54.162Z,102057.72
2022-10-03T05:21:27.120Z,102068.31
2022-10-03T05:21:55.995Z,102071.81
2022-10-03T05:22:33.760Z,102078.91
2022-10-03T05:23:06.729Z,102068.28
2022-10-03T05:23:42.188Z,102076.31
2022-10-03T05:24:20.245Z,102070.06
2022-10-03T05:24:50.079Z,102076.22
2022-10-03T05:25:31.828Z,102082.53
2022-10-03T05:26:32.671Z,102079.91
2022-10-03T05:26:58.791Z,102075.28
2022-10-03T05:27:38.576Z,102080.75
2022-10-03T05:28:11.820Z,102072.66
2022-10-03T05:28:40.480Z,102090.47
2022-10-03T05:29:10.804Z,102077.16
2022-10-03T05:29:40.484Z,102078.06
2022-10-03T05:30:08.413Z,102086.13
2022-10-03T05:30:41.604Z,102076.31
2022-10-03T05:31:16.784Z,102085.31
2022-10-03T05:31:49.575Z,102084.44
2022-10-03T05:32:22.842Z,102087.22
2022-10-03T05:32:50.123Z,102087.16
2022-10-03T05:33:22.881Z,102094.25
2022-10-03T05:33:51.743Z,102085.44
2022-10-03T05:34:23.772Z,102089.94
2022-10-03T05:35:04.919Z,102086.56
2022-10-03T05:35:41.954Z,102086.47
2022-10-03T05:36:13.673Z,102083.91
2022-10-03T05:36:55.936Z,102083.81
2022-10-03T05:37:40.663Z,102091.88
2022-10-03T05:38:35.747Z,102083.25
2022-10-03T05:39:20.984Z,102088.56
2022-10-03T05:39:53.629Z,102078.03
2022-10-03T05:40:20.656Z,102093.84
2022-10-03T05:40:51.404Z,102092.03
2022-10-03T05:41:25.989Z,102075.41
2022-10-03T05:42:17.804Z,102089.47
2022-10-03T05:42:53.417Z,102087.78
2022-10-03T05:43:28.188Z,102094.84
2022-10-03T05:43:58.715Z,102093.16
2022-10-03T05:44:27.696Z,102096.69
2022-10-03T05:45:01.915Z,102094.03
2022-10-03T05:45:31.669Z,102097.63
2022-10-03T05:46:04.685Z,102092.28
2022-10-03T05:46:42.796Z,102080.03
2022-10-03T05:47:38.418Z,102090.50
2022-10-03T05:48:15.404Z,102086.00
2022-10-03T05:48:47.795Z,102097.44
2022-10-03T05:49:28.562Z,102099.13
2022-10-03T05:50:10.988Z,102094.59
2022-10-03T05:51:11.790Z,102100.81
2022-10-03T05:51:52.445Z,102096.25
2022-10-03T05:52:27.692Z,102101.59
2022-10-03T05:53:01.370Z,102100.59
2022-10-03T05:53:52.065Z,102099.66
2022-10-03T05:54:52.088Z,102098.69
2022-10-03T05:55:41.175Z,102095.16
2022-10-03T05:56:12.143Z,102097.81
2022-10-03T05:56:58.832Z,102096.06
2022-10-03T05:57:39.780Z,102096.22
2022-10-03T05:58:31.805Z,102098.91
2022-10-03T05:59:22.707Z,102102.41
2022-10-03T06:00:10.238Z,102100.69
2022-10-03T06:00:52.969Z,102108.78
2022-10-03T06:01:31.937Z,102107.06
2022-10-03T06:02:21.379Z,102103.28
2022-10-03T06:03:32.103Z,102112.16
2022-10-03T06:04:25.932Z,102108.50
2022-10-03T06:05:16.389Z,102104.00
2022-10-03T06:05:55.050Z,102106.69
2022-10-03T06:06:20.966Z,102107.50
2022-10-03T06:07:02.617Z,102114.59
2022-10-03T06:07:29.076Z,102106.69
2022-10-03T06:08:15.297Z,102109.25
2022-10-03T06:09:13.521Z,102111.03
2022-10-03T06:10:06.169Z,102106.63
2022-10-03T06:10:43.103Z,102113.69
2022-10-03T06:11:19.818Z,102114.56
2022-10-03T06:12:05.662Z,102112.81
2022-10-03T06:12:35.591Z,102113.69
2022-10-03T06:13:11.743Z,102118.16
2022-10-03T06:13:48.701Z,102121.84
2022-10-03T06:14:29.998Z,102111.13
2022-10-03T06:15:11.267Z,102113.69
2022-10-03T06:15:44.306Z,102114.56
2022-10-03T06:16:24.487Z,102111.13
2022-10-03T06:16:59.310Z,102112.84
2022-10-03T06:17:42.993Z,102105.78
2022-10-03T06:18:38.122Z,102124.41
2022-10-03T06:19:40.628Z,102111.94
2022-10-03T06:20:23.212Z,102114.50
2022-10-03T06:21:10.849Z,102119.00
2022-10-03T06:22:01.343Z,102117.25
2022-10-03T06:22:59.645Z,102108.50
2022-10-03T06:24:15.402Z,102106.53
2022-10-03T06:25:16.340Z,102110.13
2022-10-03T06:26:01.559Z,102110.16
2022-10-03T06:26:58.393Z,102107.50
2022-10-03T06:28:06.694Z,102111.88
2022-10-03T06:29:07.385Z,102110.13
2022-10-03T06:29:54.681Z,102106.59
2022-10-03T06:30:22.742Z,102117.28
2022-10-03T06:31:15.496Z,102117.28
2022-10-03T06:32:13.829Z,102125.16
2022-10-03T06:33:06.608Z,102124.16
2022-10-03T06:34:13.647Z,102119.63
2022-10-03T06:35:33.079Z,102121.38
2022-10-03T06:36:34.596Z,102133.84
2022-10-03T06:37:27.964Z,102133.84
2022-10-03T06:38:36.269Z,102119.72
2022-10-03T06:39:38.714Z,102135.72
2022-10-03T06:40:34.738Z,102139.19
2022-10-03T06:41:43.231Z,102131.13
2022-10-03T06:42:40.856Z,102132.00
2022-10-03T06:43:16.998Z,102128.41
2022-10-03T06:43:53.233Z,102123.88
2022-10-03T06:44:30.094Z,102126.50
2022-10-03T06:45:21.316Z,102128.25
2022-10-03T06:46:20.374Z,102129.13
2022-10-03T06:47:16.588Z,102124.59
2022-10-03T06:47:57.745Z,102132.59
2022-10-03T06:48:37.216Z,102129.00
2022-10-03T06:49:29.016Z,102128.16
2022-10-03T06:50:23.514Z,102131.63
2022-10-03T06:51:17.161Z,102132.44
2022-10-03T06:52:01.399Z,102127.91
2022-10-03T06:52:57.705Z,102131.44
2022-10-03T06:53:59.434Z,102125.25
2022-10-03T06:55:11.872Z,102124.31
2022-10-03T06:56:08.277Z,102122.31
2022-10-03T06:56:58.287Z,102134.78
2022-10-03T06:57:40.637Z,102128.50
2022-10-03T06:58:43.936Z,102126.66
2022-10-03T06:59:41.695Z,102123.97
2022-10-03T07:00:15.414Z,102124.91
2022-10-03T07:00:53.480Z,102128.34
2022-10-03T07:01:48.370Z,102119.56
2022-10-03T07:02:38.869Z,102126.56
2022-10-03T07:03:22.200Z,102119.44
2022-10-03T07:04:05.271Z,102130.97
2022-10-03T07:05:00.333Z,102124.66
2022-10-03T07:06:00.517Z,102125.53
2022-10-03T07:06:42.496Z,102129.16
2022-10-03T07:07:32.696Z,102129.09
2022-10-03T07:08:29.125Z,102127.31
2022-10-03T07:09:44.754Z,102132.66
2022-10-03T07:10:21.800Z,102139.78
2022-10-03T07:10:57.847Z,102134.41
2022-10-03T07:11:49.046Z,102131.72
2022-10-03T07:12:57.915Z,102131.78
2022-10-03T07:13:49.084Z,102131.75
2022-10-03T07:14:50.034Z,102134.31
2022-10-03T07:16:08.680Z,102140.53
2022-10-03T07:16:47.611Z,102135.09
2022-10-03T07:17:34.985Z,102126.31
2022-10-03T07:18:31.869Z,102133.41
2022-10-03T07:19:21.860Z,102140.50
2022-10-03T07:20:09.882Z,102136.88
2022-10-03T07:21:23.062Z,102140.41
2022-10-03T07:22:14.216Z,102138.75
2022-10-03T07:23:01.733Z,102136.94
2022-10-03T07:23:49.646Z,102143.19
2022-10-03T07:24:41.368Z,102144.88
2022-10-03T07:25:43.677Z,102144.00
2022-10-03T07:26:56.937Z,102140.41
2022-10-03T07:27:39.953Z,102143.06
2022-10-03T07:28:35.046Z,102140.28
2022-10-03T07:29:15.081Z,102130.63
2022-10-03T07:30:05.144Z,102144.69
2022-10-03T07:30:35.358Z,102133.41
2022-10-03T07:31:07.801Z,102141.06
2022-10-03T07:31:48.371Z,102148.22
2022-10-03T07:32:25.352Z,102156.13
2022-10-03T07:33:36.735Z,102152.50
2022-10-03T07:34:41.501Z,102150.75
2022-10-03T07:36:03.433Z,102156.03
2022-10-03T07:36:50.331Z,102157.75
2022-10-03T07:37:47.926Z,102164.84
2022-10-03T07:39:01.233Z,102164.88